createdAt,value
2023-04-15T00:01:05.951Z,16.90
2023-04-15T00:03:34.578Z,16.15
2023-04-15T00:06:02.472Z,16.65
2023-04-15T00:08:30.133Z,16.20
2023-04-15T00:10:57.620Z,16.90
2023-04-15T00:13:24.744Z,17.17
2023-04-15T00:15:52.203Z,16.90
2023-04-15T00:18:19.150Z,16.25
2023-04-15T00:20:46.037Z,16.20
2023-04-15T00:23:12.918Z,17.10
2023-04-15T00:25:40.380Z,16.58
2023-04-15T00:28:07.227Z,17.70
2023-04-15T00:30:34.090Z,16.83
2023-04-15T00:33:04.648Z,16.63
2023-04-15T00:35:34.357Z,17.27
2023-04-15T00:38:01.241Z,17.00
2023-04-15T00:40:28.094Z,16.60
2023-04-15T00:42:55.140Z,17.30
2023-04-15T00:45:22.174Z,17.02
2023-04-15T00:47:49.266Z,15.80
2023-04-15T00:50:16.228Z,16.67
2023-04-15T00:52:43.033Z,16.80
2023-04-15T00:55:11.350Z,17.52
2023-04-15T00:57:39.941Z,17.40
2023-04-15T01:00:11.853Z,17.70
2023-04-15T01:02:39.333Z,16.70
2023-04-15T01:05:08.398Z,17.50
2023-04-15T01:07:35.469Z,16.05
2023-04-15T01:10:03.971Z,16.88
2023-04-15T01:12:33.087Z,16.03
2023-04-15T01:15:00.534Z,17.27
2023-04-15T01:17:27.743Z,17.40
2023-04-15T01:19:59.877Z,16.02
2023-04-15T01:22:28.724Z,18.10
2023-04-15T01:25:10.325Z,18.10
2023-04-15T01:27:41.091Z,16.65
2023-04-15T01:30:08.686Z,17.20
2023-04-15T01:32:35.793Z,17.08
2023-04-15T01:35:02.950Z,16.15
2023-04-15T01:37:30.795Z,16.40
2023-04-15T01:39:58.152Z,17.10
2023-04-15T01:42:25.020Z,17.58
2023-04-15T01:44:52.067Z,16.98
2023-04-15T01:47:18.966Z,16.20
2023-04-15T01:49:46.040Z,15.60
2023-04-15T01:52:13.113Z,16.40
2023-04-15T01:54:39.945Z,16.63
2023-04-15T01:57:06.895Z,15.80
2023-04-15T01:59:33.727Z,17.10
2023-04-15T02:02:01.394Z,16.10
2023-04-15T02:04:28.267Z,16.70
2023-04-15T02:06:55.487Z,15.90
2023-04-15T02:09:22.339Z,16.20
2023-04-15T02:11:49.266Z,16.00
2023-04-15T02:14:16.265Z,15.75
2023-04-15T02:16:43.178Z,18.60
2023-04-15T02:19:10.097Z,16.55
2023-04-15T02:21:37.021Z,16.73
2023-04-15T02:24:04.360Z,15.95
2023-04-15T02:26:33.416Z,16.23
2023-04-15T02:29:01.130Z,17.65
2023-04-15T02:31:28.387Z,15.55
2023-04-15T02:33:55.350Z,16.27
2023-04-15T02:36:23.864Z,15.70
2023-04-15T02:38:50.865Z,15.80
2023-04-15T02:41:17.879Z,16.17
2023-04-15T02:43:44.819Z,15.90
2023-04-15T02:46:14.760Z,16.20
2023-04-15T02:48:41.885Z,16.90
2023-04-15T02:51:17.297Z,16.10
2023-04-15T02:53:44.228Z,16.13
2023-04-15T02:56:11.831Z,16.27
2023-04-15T02:58:39.496Z,16.93
2023-04-15T03:01:07.571Z,17.83
2023-04-15T03:03:35.160Z,15.60
2023-04-15T03:06:02.113Z,16.35
2023-04-15T03:08:29.162Z,16.08
2023-04-15T03:10:58.076Z,16.95
2023-04-15T03:13:24.901Z,16.77
2023-04-15T03:15:52.136Z,16.17
2023-04-15T03:18:19.074Z,16.05
2023-04-15T03:20:46.156Z,16.30
2023-04-15T03:23:13.057Z,16.77
2023-04-15T03:25:39.975Z,16.55
2023-04-15T03:28:06.943Z,16.30
2023-04-15T03:30:33.828Z,16.60
2023-04-15T03:33:00.766Z,16.30
2023-04-15T03:35:27.622Z,16.00
2023-04-15T03:37:54.641Z,16.70
2023-04-15T03:40:21.763Z,16.40
2023-04-15T03:42:48.645Z,15.90
2023-04-15T03:45:15.595Z,16.20
2023-04-15T03:47:42.569Z,16.30
2023-04-15T03:50:09.704Z,17.00
2023-04-15T03:52:36.594Z,16.77
2023-04-15T03:55:03.602Z,15.80
2023-04-15T03:57:30.628Z,16.40
2023-04-15T03:59:57.458Z,15.53
2023-04-15T04:02:24.653Z,15.87
2023-04-15T04:04:51.835Z,16.48
2023-04-15T04:07:19.066Z,16.38
2023-04-15T04:09:47.299Z,17.70
2023-04-15T04:12:14.622Z,16.77
2023-04-15T04:14:41.537Z,16.23
2023-04-15T04:17:08.586Z,15.88
2023-04-15T04:19:35.729Z,16.13
2023-04-15T04:22:02.659Z,16.95
2023-04-15T04:24:29.538Z,16.60
2023-04-15T04:26:57.306Z,17.00
2023-04-15T04:29:24.237Z,16.10
2023-04-15T04:31:51.271Z,16.23
2023-04-15T04:34:18.270Z,16.33
2023-04-15T04:36:45.229Z,16.50
2023-04-15T04:39:12.154Z,16.75
2023-04-15T04:41:38.957Z,16.63
2023-04-15T04:44:05.879Z,17.50
2023-04-15T04:46:32.688Z,17.00
2023-04-15T04:48:59.584Z,16.50
2023-04-15T04:51:26.572Z,16.15
2023-04-15T04:53:53.971Z,15.98
2023-04-15T04:56:21.066Z,15.95
2023-04-15T04:58:47.932Z,15.95
2023-04-15T05:01:15.000Z,15.80
2023-04-15T05:03:42.122Z,16.38
2023-04-15T05:06:09.043Z,17.40
2023-04-15T05:08:36.733Z,16.20
2023-04-15T05:11:04.549Z,16.95
2023-04-15T05:13:31.599Z,16.90
2023-04-15T05:15:58.549Z,16.80
2023-04-15T05:18:25.560Z,18.15
2023-04-15T05:20:52.618Z,16.60
2023-04-15T05:23:19.577Z,17.03
2023-04-15T05:25:46.479Z,16.60
2023-04-15T05:28:13.327Z,17.33
2023-04-15T05:30:40.517Z,16.57
2023-04-15T05:33:07.327Z,16.40
2023-04-15T05:35:34.264Z,16.90
2023-04-15T05:38:01.167Z,17.30
2023-04-15T05:40:28.203Z,17.20
2023-04-15T05:42:55.086Z,18.80
2023-04-15T05:45:21.950Z,18.20
2023-04-15T05:47:50.991Z,17.90
2023-04-15T05:50:17.983Z,17.15
2023-04-15T05:52:46.028Z,16.50
2023-04-15T05:55:13.012Z,16.63
2023-04-15T05:57:39.862Z,16.90
2023-04-15T06:00:07.325Z,17.83
2023-04-15T06:02:34.301Z,18.20
2023-04-15T06:05:01.477Z,17.05
2023-04-15T06:07:28.543Z,17.27
2023-04-15T06:09:55.464Z,17.00
2023-04-15T06:12:22.286Z,16.95
2023-04-15T06:14:49.153Z,17.42
2023-04-15T06:17:18.479Z,17.08
2023-04-15T06:19:45.568Z,17.67
2023-04-15T06:22:12.397Z,17.25
2023-04-15T06:24:39.238Z,18.23
2023-04-15T06:27:06.109Z,18.00
2023-04-15T06:29:32.930Z,16.95
2023-04-15T06:31:59.800Z,16.45
2023-04-15T06:34:27.405Z,16.67
2023-04-15T06:36:54.811Z,17.15
2023-04-15T06:39:21.663Z,17.05
2023-04-15T06:41:49.063Z,16.80
2023-04-15T06:44:16.290Z,17.00
2023-04-15T06:46:43.169Z,17.57
2023-04-15T06:49:10.349Z,16.75
2023-04-15T06:51:37.426Z,16.75
2023-04-15T06:54:06.203Z,16.95
2023-04-15T06:56:33.758Z,16.57
2023-04-15T06:59:00.900Z,16.58
2023-04-15T07:01:28.387Z,17.50
2023-04-15T07:03:55.457Z,17.30
2023-04-15T07:06:22.521Z,16.30
2023-04-15T07:08:49.760Z,18.15
2023-04-15T07:11:17.489Z,17.10
2023-04-15T07:13:44.452Z,17.20
2023-04-15T07:16:11.294Z,17.48
2023-04-15T07:18:38.274Z,17.23
2023-04-15T07:21:05.199Z,17.00
2023-04-15T07:23:32.205Z,17.30
2023-04-15T07:25:59.318Z,18.00
2023-04-15T07:28:26.143Z,16.70
2023-04-15T07:30:53.207Z,17.40
2023-04-15T07:33:20.156Z,16.40
2023-04-15T07:35:47.167Z,17.13
2023-04-15T07:38:14.110Z,17.85
2023-04-15T07:40:42.372Z,17.10
2023-04-15T07:43:09.990Z,16.55
2023-04-15T07:45:36.944Z,17.83
2023-04-15T07:48:04.219Z,20.10
2023-04-15T07:50:31.270Z,21.20
2023-04-15T07:52:58.336Z,20.27
2023-04-15T07:55:26.211Z,18.50
2023-04-15T07:57:54.643Z,18.40
2023-04-15T08:00:21.506Z,16.60
2023-04-15T08:02:48.611Z,19.35
2023-04-15T08:05:15.898Z,17.80
2023-04-15T08:07:42.969Z,17.65
2023-04-15T08:10:10.129Z,17.88
2023-04-15T08:12:37.166Z,17.88
2023-04-15T08:15:04.792Z,16.53
2023-04-15T08:17:31.695Z,16.70
2023-04-15T08:19:58.689Z,16.80
2023-04-15T08:22:25.593Z,16.85
2023-04-15T08:24:52.434Z,16.65
2023-04-15T08:27:19.792Z,16.60
2023-04-15T08:29:47.195Z,17.10
2023-04-15T08:32:14.937Z,16.77
2023-04-15T08:34:41.918Z,17.53
2023-04-15T08:37:09.607Z,16.50
2023-04-15T08:39:37.815Z,16.92
2023-04-15T08:42:11.931Z,18.97
2023-04-15T08:44:40.260Z,18.27
2023-04-15T08:47:08.808Z,16.75
2023-04-15T08:49:41.232Z,17.60
2023-04-15T08:52:09.460Z,17.40
2023-04-15T08:54:37.559Z,17.00
2023-04-15T08:57:04.741Z,17.30
2023-04-15T08:59:32.030Z,17.48
2023-04-15T09:01:59.275Z,16.25
2023-04-15T09:04:26.336Z,16.70
2023-04-15T09:06:53.229Z,17.57
2023-04-15T09:09:20.297Z,17.05
2023-04-15T09:11:47.158Z,17.30
2023-04-15T09:14:14.063Z,16.10
2023-04-15T09:17:03.982Z,16.90
2023-04-15T09:19:33.483Z,16.20
2023-04-15T09:22:01.203Z,17.67
2023-04-15T09:24:39.767Z,16.63
2023-04-15T09:27:06.992Z,17.00
2023-04-15T09:29:34.200Z,17.80
2023-04-15T09:32:15.569Z,17.92
2023-04-15T09:34:42.922Z,16.80
2023-04-15T09:37:11.066Z,16.80
2023-04-15T09:39:56.278Z,17.23
2023-04-15T09:42:26.963Z,17.60
2023-04-15T09:44:54.109Z,16.98
2023-04-15T09:47:31.596Z,16.50
2023-04-15T09:50:00.367Z,17.38
2023-04-15T09:52:28.798Z,16.40
2023-04-15T09:54:58.616Z,17.33
2023-04-15T09:57:25.686Z,16.70
2023-04-15T09:59:52.666Z,17.45
2023-04-15T10:02:23.105Z,17.77
2023-04-15T10:04:51.786Z,17.95
2023-04-15T10:07:20.766Z,16.35
2023-04-15T10:09:49.167Z,17.50
2023-04-15T10:12:20.300Z,16.10
2023-04-15T10:14:56.679Z,16.80
2023-04-15T10:17:26.387Z,17.20
2023-04-15T10:19:55.028Z,17.52
2023-04-15T10:22:24.300Z,16.70
2023-04-15T10:24:52.571Z,17.23
2023-04-15T10:27:20.504Z,16.85
2023-04-15T10:29:49.541Z,16.83
2023-04-15T10:32:19.182Z,16.55
2023-04-15T10:34:48.614Z,17.70
2023-04-15T10:37:37.632Z,17.33
2023-04-15T10:40:33.475Z,16.27
2023-04-15T10:43:02.005Z,17.02
2023-04-15T10:45:33.737Z,17.70
2023-04-15T10:48:04.011Z,17.10
2023-04-15T10:50:32.620Z,16.30
2023-04-15T10:53:02.360Z,17.20
2023-04-15T10:55:33.450Z,17.08
2023-04-15T10:58:02.227Z,17.02
2023-04-15T11:00:30.340Z,16.60
2023-04-15T11:03:07.890Z,17.40
2023-04-15T11:05:51.718Z,16.33
2023-04-15T11:08:18.828Z,17.07
2023-04-15T11:10:45.659Z,17.03
2023-04-15T11:13:12.464Z,16.88
2023-04-15T11:15:47.050Z,18.40
2023-04-15T11:18:24.243Z,17.50
2023-04-15T11:21:02.950Z,16.87
2023-04-15T11:23:34.375Z,17.48
2023-04-15T11:26:03.817Z,17.20
2023-04-15T11:28:32.044Z,17.05
2023-04-15T11:31:05.892Z,17.33
2023-04-15T11:33:32.905Z,17.65
2023-04-15T11:36:01.940Z,18.10
2023-04-15T11:38:28.918Z,17.48
2023-04-15T11:40:56.268Z,17.48
2023-04-15T11:43:23.537Z,17.20
2023-04-15T11:45:51.507Z,17.03
2023-04-15T11:48:20.013Z,16.90
2023-04-15T11:50:46.964Z,16.92
2023-04-15T11:53:14.201Z,17.10
2023-04-15T11:55:52.284Z,18.08
2023-04-15T11:58:20.569Z,19.23
2023-04-15T12:00:54.533Z,17.27
2023-04-15T12:03:37.321Z,17.92
2023-04-15T12:06:13.372Z,16.77
2023-04-15T12:09:07.182Z,17.10
2023-04-15T12:11:47.556Z,17.83
2023-04-15T12:14:31.157Z,17.80
2023-04-15T12:17:01.420Z,17.85
2023-04-15T12:19:30.396Z,16.80
2023-04-15T12:22:06.610Z,17.90
2023-04-15T12:24:34.666Z,16.65
2023-04-15T12:27:21.660Z,17.77
2023-04-15T12:29:48.477Z,18.40
2023-04-15T12:32:16.752Z,18.80
2023-04-15T12:34:49.686Z,17.38
2023-04-15T12:37:17.110Z,16.92
2023-04-15T12:39:46.322Z,18.00
2023-04-15T12:42:13.324Z,16.73
2023-04-15T12:44:40.576Z,17.73
2023-04-15T12:47:09.417Z,18.88
2023-04-15T12:49:36.429Z,18.13
2023-04-15T12:52:04.008Z,18.05
2023-04-15T12:54:32.174Z,18.10
2023-04-15T12:56:59.819Z,17.05
2023-04-15T12:59:26.964Z,19.88
2023-04-15T13:01:54.720Z,17.80
2023-04-15T13:04:22.391Z,16.58
2023-04-15T13:06:49.896Z,17.85
2023-04-15T13:09:16.927Z,18.55
2023-04-15T13:11:44.096Z,21.80
2023-04-15T13:14:14.155Z,17.70
2023-04-15T13:16:41.523Z,16.90
2023-04-15T13:19:08.902Z,17.50
2023-04-15T13:21:36.526Z,17.05
2023-04-15T13:24:04.911Z,17.65
2023-04-15T13:26:32.833Z,17.60
2023-04-15T13:28:59.942Z,17.50
2023-04-15T13:31:27.322Z,17.00
2023-04-15T13:33:54.417Z,17.35
2023-04-15T13:36:21.442Z,17.20
2023-04-15T13:38:50.976Z,17.60
2023-04-15T13:41:18.969Z,17.30
2023-04-15T13:43:46.310Z,17.17
2023-04-15T13:46:13.235Z,17.80
2023-04-15T13:48:40.253Z,16.98
2023-04-15T13:51:07.178Z,16.70
2023-04-15T13:53:38.771Z,20.60
2023-04-15T13:56:07.814Z,18.23
2023-04-15T13:58:34.756Z,17.52
2023-04-15T14:01:03.955Z,17.27
2023-04-15T14:03:32.813Z,18.15
2023-04-15T14:05:59.889Z,16.83
2023-04-15T14:08:26.814Z,18.37
2023-04-15T14:10:53.607Z,17.50
2023-04-15T14:13:20.691Z,17.00
2023-04-15T14:15:47.551Z,18.05
2023-04-15T14:18:14.531Z,18.00
2023-04-15T14:20:41.432Z,17.30
2023-04-15T14:23:08.278Z,18.00
2023-04-15T14:25:35.193Z,16.50
2023-04-15T14:28:03.426Z,17.80
2023-04-15T14:30:30.874Z,16.88
2023-04-15T14:32:58.143Z,17.65
2023-04-15T14:35:26.863Z,17.27
2023-04-15T14:37:54.397Z,17.08
2023-04-15T14:40:21.718Z,17.92
2023-04-15T14:42:49.084Z,17.35
2023-04-15T14:45:16.145Z,18.38
2023-04-15T14:47:43.365Z,17.48
2023-04-15T14:50:10.709Z,17.95
2023-04-15T14:52:40.404Z,17.20
2023-04-15T14:55:11.950Z,18.15
2023-04-15T14:57:39.978Z,18.30
2023-04-15T15:00:08.787Z,16.75
2023-04-15T15:02:39.611Z,17.73
2023-04-15T15:05:07.560Z,17.90
2023-04-15T15:07:36.103Z,17.70
2023-04-15T15:10:07.100Z,16.70
2023-04-15T15:12:34.294Z,17.85
2023-04-15T15:15:02.987Z,18.60
2023-04-15T15:17:31.912Z,18.20
2023-04-15T15:19:58.834Z,17.90
2023-04-15T15:22:26.207Z,17.80
2023-04-15T15:24:53.590Z,17.33
2023-04-15T15:27:21.171Z,17.23
2023-04-15T15:29:49.044Z,17.10
2023-04-15T15:32:16.073Z,18.73
2023-04-15T15:34:42.877Z,17.23
2023-04-15T15:37:09.848Z,18.52
2023-04-15T15:39:36.720Z,17.58
2023-04-15T15:42:03.685Z,17.30
2023-04-15T15:44:31.002Z,17.10
2023-04-15T15:46:58.939Z,17.10
2023-04-15T15:49:28.154Z,17.52
2023-04-15T15:51:56.160Z,17.73
2023-04-15T15:54:23.073Z,16.88
2023-04-15T15:56:50.117Z,17.97
2023-04-15T15:59:17.000Z,17.52
2023-04-15T16:01:44.374Z,17.20
2023-04-15T16:04:11.471Z,17.30
2023-04-15T16:06:38.457Z,16.90
2023-04-15T16:09:05.640Z,17.30
2023-04-15T16:11:32.716Z,17.88
2023-04-15T16:13:59.790Z,17.40
2023-04-15T16:16:26.678Z,17.30
2023-04-15T16:18:53.572Z,17.43
2023-04-15T16:21:20.723Z,17.20
2023-04-15T16:23:47.905Z,17.10
2023-04-15T16:26:14.812Z,17.57
2023-04-15T16:28:41.716Z,16.67
2023-04-15T16:31:10.554Z,17.65
2023-04-15T16:33:39.073Z,17.00
2023-04-15T16:36:06.088Z,17.95
2023-04-15T16:38:32.982Z,17.40
2023-04-15T16:41:01.383Z,17.10
2023-04-15T16:43:29.456Z,17.88
2023-04-15T16:45:56.502Z,17.00
2023-04-15T16:48:23.402Z,16.45
2023-04-15T16:50:50.353Z,18.07
2023-04-15T16:53:17.470Z,18.77
2023-04-15T16:55:44.379Z,17.50
2023-04-15T16:58:11.168Z,18.30
2023-04-15T17:00:38.371Z,17.48
2023-04-15T17:03:05.936Z,17.08
2023-04-15T17:05:33.226Z,17.63
2023-04-15T17:08:00.094Z,18.73
2023-04-15T17:10:27.424Z,17.55
2023-04-15T17:12:56.654Z,17.90
2023-04-15T17:15:24.037Z,16.57
2023-04-15T17:17:51.035Z,17.15
2023-04-15T17:20:18.048Z,17.60
2023-04-15T17:22:45.938Z,17.83
2023-04-15T17:25:13.846Z,17.23
2023-04-15T17:27:41.162Z,17.75
2023-04-15T17:30:08.845Z,18.25
2023-04-15T17:32:36.109Z,17.30
2023-04-15T17:35:06.366Z,17.98
2023-04-15T17:37:36.485Z,17.27
2023-04-15T17:40:04.050Z,16.63
2023-04-15T17:42:32.272Z,17.65
2023-04-15T17:44:59.075Z,16.50
2023-04-15T17:47:26.545Z,17.10
2023-04-15T17:49:53.402Z,16.90
2023-04-15T17:52:20.297Z,16.52
2023-04-15T17:54:47.156Z,17.40
2023-04-15T17:57:14.070Z,17.70
2023-04-15T17:59:44.100Z,17.52
2023-04-15T18:02:11.646Z,16.75
2023-04-15T18:04:39.351Z,17.50
2023-04-15T18:07:06.549Z,17.40
2023-04-15T18:09:33.496Z,17.48
2023-04-15T18:12:02.024Z,17.87
2023-04-15T18:14:34.752Z,18.20
2023-04-15T18:17:03.006Z,16.85
2023-04-15T18:19:30.883Z,16.73
2023-04-15T18:22:00.130Z,16.73
2023-04-15T18:24:27.850Z,16.85
2023-04-15T18:26:54.820Z,17.45
2023-04-15T18:29:21.904Z,17.88
2023-04-15T18:31:48.855Z,17.20
2023-04-15T18:34:15.896Z,17.02
2023-04-15T18:36:42.849Z,16.70
2023-04-15T18:39:10.450Z,17.35
2023-04-15T18:41:37.364Z,17.55
2023-04-15T18:44:04.275Z,17.73
2023-04-15T18:46:31.214Z,18.10
2023-04-15T18:48:58.153Z,16.83
2023-04-15T18:51:25.044Z,18.30
2023-04-15T18:53:51.931Z,17.25
2023-04-15T18:56:18.798Z,17.50
2023-04-15T18:59:21.118Z,17.00
2023-04-15T19:01:33.234Z,17.08
2023-04-15T19:04:00.221Z,16.83
2023-04-15T19:06:27.421Z,16.50
2023-04-15T19:08:54.679Z,16.80
2023-04-15T19:11:21.843Z,16.60
2023-04-15T19:13:49.077Z,17.13
2023-04-15T19:16:16.119Z,17.00
2023-04-15T19:18:43.265Z,18.35
2023-04-15T19:21:12.107Z,17.60
2023-04-15T19:23:39.540Z,17.23
2023-04-15T19:26:08.222Z,17.33
2023-04-15T19:28:35.268Z,17.67
2023-04-15T19:31:02.226Z,17.17
2023-04-15T19:33:31.438Z,17.48
2023-04-15T19:36:02.819Z,18.00
2023-04-15T19:38:30.906Z,17.10
2023-04-15T19:40:58.328Z,16.90
2023-04-15T19:43:25.924Z,17.13
2023-04-15T19:45:54.666Z,16.83
2023-04-15T19:48:23.119Z,17.70
2023-04-15T19:50:50.117Z,17.08
2023-04-15T19:53:17.179Z,17.20
2023-04-15T19:55:44.210Z,17.45
2023-04-15T19:58:11.345Z,16.70
2023-04-15T20:00:38.639Z,17.45
2023-04-15T20:03:05.823Z,16.80
2023-04-15T20:05:32.835Z,16.50
2023-04-15T20:08:01.476Z,18.00
2023-04-15T20:10:28.542Z,16.20
2023-04-15T20:12:55.443Z,16.30
2023-04-15T20:15:24.008Z,16.63
2023-04-15T20:17:51.313Z,16.40
2023-04-15T20:20:18.418Z,15.80
2023-04-15T20:22:45.412Z,16.20
2023-04-15T20:25:12.711Z,16.27
2023-04-15T20:27:39.808Z,15.93
2023-04-15T20:30:07.440Z,17.08
2023-04-15T20:32:35.892Z,16.10
2023-04-15T20:35:04.907Z,17.10
2023-04-15T20:37:33.363Z,16.20
2023-04-15T20:40:01.650Z,16.40
2023-04-15T20:42:32.441Z,15.60
2023-04-15T20:44:59.403Z,16.00
2023-04-15T20:47:26.413Z,15.80
2023-04-15T20:49:55.456Z,16.20
2023-04-15T20:52:22.376Z,15.50
2023-04-15T20:54:49.280Z,15.80
2023-04-15T20:57:16.811Z,16.10
2023-04-15T20:59:43.909Z,16.10
2023-04-15T21:02:10.870Z,16.20
2023-04-15T21:04:38.930Z,15.80
2023-04-15T21:07:06.001Z,16.00
2023-04-15T21:09:32.928Z,15.90
2023-04-15T21:12:01.876Z,15.77
2023-04-15T21:14:29.504Z,15.90
2023-04-15T21:16:59.303Z,15.90
2023-04-15T21:19:26.246Z,16.50
2023-04-15T21:21:53.092Z,16.00
2023-04-15T21:24:20.259Z,16.23
2023-04-15T21:26:47.255Z,15.95
2023-04-15T21:29:14.259Z,16.17
2023-04-15T21:31:41.480Z,16.65
2023-04-15T21:34:09.322Z,16.90
2023-04-15T21:36:37.706Z,16.33
2023-04-15T21:39:05.216Z,17.40
2023-04-15T21:41:35.098Z,16.30
2023-04-15T21:44:02.053Z,16.30
2023-04-15T21:46:32.627Z,16.83
2023-04-15T21:49:00.118Z,17.30
2023-04-15T21:51:27.710Z,17.25
2023-04-15T21:53:54.726Z,17.90
2023-04-15T21:56:24.137Z,17.20
2023-04-15T21:58:54.127Z,17.33
2023-04-15T22:01:21.155Z,16.90
2023-04-15T22:03:48.565Z,17.58
2023-04-15T22:06:15.806Z,17.15
2023-04-15T22:08:53.069Z,17.38
2023-04-15T22:11:27.659Z,17.20
2023-04-15T22:13:56.572Z,17.52
2023-04-15T22:16:27.039Z,17.90
2023-04-15T22:18:55.021Z,18.00
2023-04-15T22:21:22.102Z,18.20
2023-04-15T22:23:49.495Z,17.60
2023-04-15T22:26:16.365Z,17.83
2023-04-15T22:28:43.245Z,17.50
2023-04-15T22:31:10.438Z,17.77
2023-04-15T22:33:37.459Z,18.25
2023-04-15T22:36:04.325Z,18.50
2023-04-15T22:38:31.313Z,18.40
2023-04-15T22:40:58.485Z,18.13
2023-04-15T22:43:26.084Z,18.27
2023-04-15T22:45:54.819Z,18.60
2023-04-15T22:48:22.047Z,19.40
2023-04-15T22:50:49.350Z,18.70
2023-04-15T22:53:17.368Z,19.00
2023-04-15T22:55:47.613Z,19.10
2023-04-15T22:58:15.880Z,19.50
2023-04-15T23:00:42.852Z,20.83
2023-04-15T23:03:09.957Z,20.00
2023-04-15T23:05:37.346Z,20.50
2023-04-15T23:08:04.205Z,19.70
2023-04-15T23:10:31.091Z,20.17
2023-04-15T23:12:58.177Z,20.70
2023-04-15T23:15:25.496Z,20.90
2023-04-15T23:17:52.407Z,21.35
2023-04-15T23:20:19.349Z,20.90
2023-04-15T23:22:46.302Z,21.15
2023-04-15T23:25:13.352Z,21.25
2023-04-15T23:27:40.266Z,21.60
2023-04-15T23:30:07.735Z,20.80
2023-04-15T23:32:34.791Z,21.55
2023-04-15T23:35:01.744Z,21.80
2023-04-15T23:37:30.933Z,21.20
2023-04-15T23:39:57.764Z,21.50
2023-04-15T23:42:24.774Z,22.00
2023-04-15T23:44:55.569Z,22.40
2023-04-15T23:47:22.721Z,22.65
2023-04-15T23:49:49.625Z,22.38
2023-04-15T23:52:16.534Z,22.70
2023-04-15T23:54:43.329Z,22.30
2023-04-15T23:57:10.168Z,23.50
2023-04-15T23:59:36.973Z,23.35
